createdAt,value
2023-04-10T00:00:57.967Z,82.53
2023-04-10T00:02:01.024Z,82.65
2023-04-10T00:03:04.351Z,82.64
2023-04-10T00:04:07.519Z,82.59
2023-04-10T00:05:11.546Z,82.85
2023-04-10T00:06:14.549Z,82.23
2023-04-10T00:07:17.526Z,82.82
2023-04-10T00:08:23.152Z,82.65
2023-04-10T00:09:26.610Z,82.61
2023-04-10T00:10:31.687Z,82.50
2023-04-10T00:11:34.605Z,82.32
2023-04-10T00:12:40.235Z,82.51
2023-04-10T00:13:43.582Z,82.58
2023-04-10T00:14:46.472Z,82.60
2023-04-10T00:15:50.260Z,82.30
2023-04-10T00:16:53.210Z,82.59
2023-04-10T00:17:56.267Z,82.30
2023-04-10T00:18:59.097Z,82.35
2023-04-10T00:20:02.342Z,82.19
2023-04-10T00:21:06.116Z,82.13
2023-04-10T00:22:08.916Z,82.13
2023-04-10T00:23:11.699Z,82.25
2023-04-10T00:24:14.589Z,82.24
2023-04-10T00:25:17.624Z,82.03
2023-04-10T00:26:21.154Z,82.42
2023-04-10T00:27:24.229Z,82.26
2023-04-10T00:28:27.423Z,82.20
2023-04-10T00:29:30.405Z,82.33
2023-04-10T00:30:33.533Z,82.12
2023-04-10T00:31:36.495Z,82.23
2023-04-10T00:32:39.395Z,81.97
2023-04-10T00:33:42.559Z,82.16
2023-04-10T00:34:45.456Z,82.08
2023-04-10T00:35:48.407Z,82.02
2023-04-10T00:36:51.527Z,82.27
2023-04-10T00:37:56.432Z,82.12
2023-04-10T00:38:59.637Z,82.36
2023-04-10T00:40:03.209Z,82.34
2023-04-10T00:41:06.838Z,82.23
2023-04-10T00:42:10.097Z,82.50
2023-04-10T00:43:13.073Z,82.32
2023-04-10T00:44:16.264Z,82.36
2023-04-10T00:45:19.345Z,82.46
2023-04-10T00:46:22.835Z,82.57
2023-04-10T00:47:27.506Z,82.71
2023-04-10T00:48:30.560Z,82.39
2023-04-10T00:49:34.661Z,82.58
2023-04-10T00:50:37.899Z,82.49
2023-04-10T00:51:41.845Z,82.57
2023-04-10T00:52:44.726Z,82.69
2023-04-10T00:53:48.398Z,82.55
2023-04-10T00:54:51.254Z,82.56
2023-04-10T00:55:56.041Z,82.56
2023-04-10T00:56:59.803Z,82.49
2023-04-10T00:58:02.631Z,82.96
2023-04-10T00:59:07.198Z,82.81
2023-04-10T01:00:10.903Z,82.77
2023-04-10T01:01:14.375Z,83.04
2023-04-10T01:02:17.328Z,82.82
2023-04-10T01:03:21.860Z,83.01
2023-04-10T01:04:28.927Z,82.83
2023-04-10T01:05:56.914Z,83.08
2023-04-10T01:07:10.022Z,82.99
2023-04-10T01:08:33.566Z,83.04
2023-04-10T01:09:48.906Z,83.15
2023-04-10T01:11:00.753Z,83.40
2023-04-10T01:12:18.845Z,83.28
2023-04-10T01:13:36.054Z,83.31
2023-04-10T01:14:42.099Z,83.26
2023-04-10T01:16:02.983Z,83.23
2023-04-10T01:17:12.026Z,83.24
2023-04-10T01:18:22.935Z,83.21
2023-04-10T01:19:38.358Z,83.31
2023-04-10T01:20:42.588Z,83.07
2023-04-10T01:21:46.172Z,82.93
2023-04-10T01:23:03.058Z,83.32
2023-04-10T01:24:18.902Z,83.14
2023-04-10T01:25:46.470Z,83.11
2023-04-10T01:27:11.246Z,83.13
2023-04-10T01:28:30.465Z,83.13
2023-04-10T01:29:36.262Z,83.15
2023-04-10T01:32:18.367Z,83.23
2023-04-10T01:33:26.664Z,83.32
2023-04-10T01:34:39.533Z,83.20
2023-04-10T01:35:47.670Z,83.24
2023-04-10T01:36:56.606Z,83.17
2023-04-10T01:38:02.272Z,83.06
2023-04-10T01:39:06.900Z,82.78
2023-04-10T01:40:14.422Z,82.89
2023-04-10T01:41:20.021Z,82.93
2023-04-10T01:42:25.509Z,82.96
2023-04-10T01:43:31.476Z,83.34
2023-04-10T01:44:38.284Z,82.93
2023-04-10T01:45:43.764Z,82.79
2023-04-10T01:46:49.783Z,82.64
2023-04-10T01:47:53.519Z,82.87
2023-04-10T01:48:59.157Z,82.81
2023-04-10T01:50:04.100Z,82.78
2023-04-10T01:51:11.307Z,82.86
2023-04-10T01:52:15.876Z,83.03
2023-04-10T01:53:24.617Z,83.12
2023-04-10T01:54:28.365Z,83.04
2023-04-10T01:55:32.234Z,83.32
2023-04-10T01:56:38.946Z,83.06
2023-04-10T01:57:42.088Z,83.21
2023-04-10T01:58:45.567Z,83.24
2023-04-10T01:59:50.828Z,83.25
2023-04-10T02:00:53.813Z,83.37
2023-04-10T02:02:01.426Z,83.44
2023-04-10T02:03:04.712Z,83.39
2023-04-10T02:04:07.840Z,83.52
2023-04-10T02:05:11.194Z,83.36
2023-04-10T02:06:41.623Z,83.58
2023-04-10T02:07:57.640Z,83.66
2023-04-10T02:09:12.598Z,83.54
2023-04-10T02:10:22.595Z,83.67
2023-04-10T02:11:51.671Z,83.76
2023-04-10T02:13:05.553Z,83.74
2023-04-10T02:14:12.055Z,83.87
2023-04-10T02:15:21.593Z,83.73
2023-04-10T02:16:25.436Z,83.79
2023-04-10T02:17:31.283Z,83.71
2023-04-10T02:18:35.745Z,83.65
2023-04-10T02:19:39.941Z,83.78
2023-04-10T02:20:43.336Z,83.79
2023-04-10T02:21:49.595Z,83.80
2023-04-10T02:22:54.322Z,83.60
2023-04-10T02:23:58.700Z,83.72
2023-04-10T02:25:04.805Z,83.78
2023-04-10T02:26:11.066Z,83.70
2023-04-10T02:27:14.146Z,83.69
2023-04-10T02:28:16.898Z,83.48
2023-04-10T02:29:20.318Z,83.55
2023-04-10T02:30:24.777Z,83.23
2023-04-10T02:31:28.022Z,83.57
2023-04-10T02:32:33.526Z,83.53
2023-04-10T02:33:36.679Z,83.37
2023-04-10T02:34:39.899Z,83.16
2023-04-10T02:35:42.955Z,83.37
2023-04-10T02:36:46.086Z,83.29
2023-04-10T02:37:50.814Z,83.45
2023-04-10T02:38:53.897Z,83.52
2023-04-10T02:39:58.636Z,83.45
2023-04-10T02:41:02.969Z,83.43
2023-04-10T02:42:05.792Z,83.03
2023-04-10T02:43:08.658Z,82.88
2023-04-10T02:44:11.614Z,82.81
2023-04-10T02:45:14.641Z,82.96
2023-04-10T02:46:18.671Z,83.29
2023-04-10T02:47:22.093Z,83.08
2023-04-10T02:48:25.140Z,83.40
2023-04-10T02:49:31.678Z,83.23
2023-04-10T02:50:35.470Z,83.25
2023-04-10T02:51:38.461Z,83.53
2023-04-10T02:52:42.005Z,83.55
2023-04-10T02:53:44.946Z,83.75
2023-04-10T02:54:59.750Z,83.66
2023-04-10T02:56:03.694Z,83.74
2023-04-10T02:57:06.668Z,83.79
2023-04-10T02:58:09.713Z,83.72
2023-04-10T02:59:13.391Z,83.90
2023-04-10T03:00:16.993Z,83.92
2023-04-10T03:01:40.926Z,83.91
2023-04-10T03:02:44.191Z,83.78
2023-04-10T03:03:51.411Z,83.80
2023-04-10T03:05:02.187Z,83.92
2023-04-10T03:06:06.898Z,84.10
2023-04-10T03:07:11.064Z,83.88
2023-04-10T03:08:14.414Z,83.89
2023-04-10T03:09:17.320Z,83.85
2023-04-10T03:10:20.280Z,83.70
2023-04-10T03:11:23.658Z,83.68
2023-04-10T03:12:26.504Z,83.40
2023-04-10T03:13:29.422Z,83.36
2023-04-10T03:14:32.394Z,83.61
2023-04-10T03:15:35.523Z,83.50
2023-04-10T03:16:38.538Z,83.73
2023-04-10T03:17:41.729Z,83.61
2023-04-10T03:18:45.586Z,83.68
2023-04-10T03:19:48.373Z,83.76
2023-04-10T03:20:51.652Z,83.93
2023-04-10T03:21:55.810Z,83.65
2023-04-10T03:23:01.563Z,83.79
2023-04-10T03:24:04.639Z,83.93
2023-04-10T03:25:08.263Z,83.77
2023-04-10T03:26:11.602Z,83.94
2023-04-10T03:27:14.825Z,83.61
2023-04-10T03:28:17.886Z,83.64
2023-04-10T03:29:20.891Z,83.72
2023-04-10T03:30:23.740Z,83.77
2023-04-10T03:31:27.233Z,83.62
2023-04-10T03:32:32.177Z,83.78
2023-04-10T03:33:36.075Z,83.88
2023-04-10T03:34:38.961Z,84.04
2023-04-10T03:35:42.243Z,83.70
2023-04-10T03:36:45.372Z,83.63
2023-04-10T03:37:48.261Z,83.84
2023-04-10T03:38:52.918Z,83.84
2023-04-10T03:39:56.010Z,83.92
2023-04-10T03:40:59.162Z,84.03
2023-04-10T03:42:03.937Z,83.95
2023-04-10T03:43:06.827Z,84.02
2023-04-10T03:44:09.931Z,84.11
2023-04-10T03:45:13.056Z,84.27
2023-04-10T03:46:16.375Z,84.32
2023-04-10T03:47:20.214Z,84.38
2023-04-10T03:48:28.483Z,84.32
2023-04-10T03:49:31.580Z,84.41
2023-04-10T03:50:39.617Z,84.46
2023-04-10T03:51:42.437Z,84.25
2023-04-10T03:52:45.367Z,84.34
2023-04-10T03:53:51.481Z,84.39
2023-04-10T03:54:54.983Z,84.30
2023-04-10T03:56:01.213Z,84.42
2023-04-10T03:57:04.515Z,84.33
2023-04-10T03:58:07.455Z,84.18
2023-04-10T03:59:11.509Z,84.14
2023-04-10T04:00:16.960Z,83.98
2023-04-10T04:01:26.156Z,84.23
2023-04-10T04:02:38.333Z,84.25
2023-04-10T04:03:42.068Z,84.26
2023-04-10T04:05:04.382Z,84.10
2023-04-10T04:06:38.304Z,84.24
2023-04-10T04:07:59.124Z,84.47
2023-04-10T04:09:13.852Z,84.47
2023-04-10T04:10:40.024Z,84.70
2023-04-10T04:12:00.221Z,84.69
2023-04-10T04:13:29.065Z,84.76
2023-04-10T04:14:45.336Z,84.86
2023-04-10T04:16:00.532Z,84.75
2023-04-10T04:17:18.452Z,84.97
2023-04-10T04:18:39.705Z,85.06
2023-04-10T04:19:54.193Z,84.96
2023-04-10T04:21:12.847Z,84.98
2023-04-10T04:22:47.595Z,85.08
2023-04-10T04:23:50.458Z,85.14
2023-04-10T04:25:11.570Z,85.03
2023-04-10T04:26:33.666Z,85.06
2023-04-10T04:27:49.758Z,84.95
2023-04-10T04:29:18.961Z,84.96
2023-04-10T04:30:38.454Z,85.16
2023-04-10T04:31:48.324Z,85.18
2023-04-10T04:33:10.075Z,85.08
2023-04-10T04:34:32.283Z,85.25
2023-04-10T04:35:58.216Z,85.29
2023-04-10T04:37:15.925Z,85.16
2023-04-10T04:38:39.029Z,85.18
2023-04-10T04:39:48.092Z,85.16
2023-04-10T04:41:09.409Z,85.14
2023-04-10T04:42:31.058Z,85.19
2023-04-10T04:44:04.869Z,85.39
2023-04-10T04:45:34.053Z,85.45
2023-04-10T04:46:55.541Z,85.33
2023-04-10T04:48:04.624Z,85.63
2023-04-10T04:49:46.200Z,85.34
2023-04-10T04:50:49.121Z,85.55
2023-04-10T04:52:12.072Z,85.52
2023-04-10T04:53:18.498Z,85.43
2023-04-10T04:54:40.171Z,85.33
2023-04-10T04:55:58.398Z,85.30
2023-04-10T04:57:14.526Z,85.24
2023-04-10T04:58:40.200Z,85.38
2023-04-10T04:59:52.386Z,85.37
2023-04-10T05:01:13.877Z,85.27
2023-04-10T05:02:31.015Z,85.39
2023-04-10T05:03:57.484Z,85.47
2023-04-10T05:05:30.352Z,85.34
2023-04-10T05:06:53.480Z,85.51
2023-04-10T05:08:26.417Z,85.17
2023-04-10T05:10:08.688Z,85.43
2023-04-10T05:11:58.997Z,85.36
2023-04-10T05:13:22.787Z,85.44
2023-04-10T05:14:45.348Z,85.53
2023-04-10T05:16:08.840Z,85.05
2023-04-10T05:17:17.393Z,85.28
2023-04-10T05:18:39.761Z,85.05
2023-04-10T05:19:54.675Z,84.65
2023-04-10T05:21:21.062Z,84.74
2023-04-10T05:22:42.336Z,84.79
2023-04-10T05:24:10.159Z,84.83
2023-04-10T05:25:24.587Z,84.63
2023-04-10T05:26:42.559Z,84.67
2023-04-10T05:28:01.346Z,84.83
2023-04-10T05:29:23.519Z,84.61
2023-04-10T05:30:52.293Z,83.95
2023-04-10T05:32:24.248Z,83.86
2023-04-10T05:33:37.493Z,83.61
2023-04-10T05:34:58.468Z,83.30
2023-04-10T05:36:11.232Z,82.99
2023-04-10T05:37:28.916Z,82.48
2023-04-10T05:38:36.357Z,82.60
2023-04-10T05:39:50.693Z,82.53
2023-04-10T05:41:16.648Z,82.63
2023-04-10T05:42:35.469Z,82.71
2023-04-10T05:44:00.568Z,82.31
2023-04-10T05:45:11.163Z,81.84
2023-04-10T05:46:34.497Z,81.92
2023-04-10T05:47:58.888Z,82.16
2023-04-10T05:49:24.669Z,81.97
2023-04-10T05:50:37.317Z,81.63
2023-04-10T05:51:50.560Z,81.87
2023-04-10T05:53:05.703Z,81.77
2023-04-10T05:54:20.512Z,81.69
2023-04-10T05:55:56.711Z,81.65
2023-04-10T05:57:18.285Z,81.53
2023-04-10T05:58:21.093Z,81.35
2023-04-10T05:59:46.720Z,80.79
2023-04-10T06:01:15.703Z,80.84
2023-04-10T06:02:28.986Z,81.00
2023-04-10T06:03:32.272Z,80.46
2023-04-10T06:04:37.229Z,80.43
2023-04-10T06:05:41.564Z,79.96
2023-04-10T06:06:44.510Z,80.03
2023-04-10T06:07:47.401Z,80.10
2023-04-10T06:08:50.974Z,79.86
2023-04-10T06:09:53.797Z,79.76
2023-04-10T06:10:57.277Z,79.81
2023-04-10T06:12:01.403Z,79.98
2023-04-10T06:13:04.613Z,79.75
2023-04-10T06:14:07.578Z,79.37
2023-04-10T06:15:17.017Z,78.89
2023-04-10T06:16:20.553Z,78.85
2023-04-10T06:17:25.842Z,78.67
2023-04-10T06:18:29.421Z,78.73
2023-04-10T06:19:32.287Z,78.23
2023-04-10T06:20:35.158Z,77.97
2023-04-10T06:21:37.981Z,77.91
2023-04-10T06:22:41.081Z,78.09
2023-04-10T06:23:44.163Z,77.64
2023-04-10T06:24:47.361Z,77.78
2023-04-10T06:25:50.330Z,77.80
2023-04-10T06:26:54.288Z,77.85
2023-04-10T06:27:57.404Z,77.87
2023-04-10T06:29:01.270Z,77.21
2023-04-10T06:30:04.348Z,77.33
2023-04-10T06:31:07.524Z,77.33
2023-04-10T06:32:11.839Z,77.13
2023-04-10T06:33:16.404Z,76.91
2023-04-10T06:34:20.558Z,76.97
2023-04-10T06:35:32.792Z,77.01
2023-04-10T06:36:36.093Z,76.86
2023-04-10T06:37:41.122Z,76.83
2023-04-10T06:38:44.731Z,76.34
2023-04-10T06:39:48.063Z,76.60
2023-04-10T06:40:50.867Z,76.20
2023-04-10T06:41:53.806Z,76.35
2023-04-10T06:43:05.152Z,76.60
2023-04-10T06:44:14.083Z,76.36
2023-04-10T06:45:16.922Z,76.33
2023-04-10T06:46:20.572Z,75.74
2023-04-10T06:47:23.876Z,76.16
2023-04-10T06:48:27.081Z,75.30
2023-04-10T06:49:29.945Z,75.63
2023-04-10T06:50:33.541Z,75.02
2023-04-10T06:51:36.577Z,74.45
2023-04-10T06:52:39.575Z,74.15
2023-04-10T06:53:42.524Z,73.67
2023-04-10T06:54:45.432Z,74.54
2023-04-10T06:55:48.943Z,74.30
2023-04-10T06:56:51.799Z,73.98
2023-04-10T06:57:56.174Z,73.78
2023-04-10T06:58:59.204Z,72.62
2023-04-10T07:00:02.180Z,72.56
2023-04-10T07:01:05.605Z,73.60
2023-04-10T07:02:08.569Z,73.42
2023-04-10T07:03:11.413Z,73.62
2023-04-10T07:04:14.674Z,73.41
2023-04-10T07:05:17.817Z,73.47
2023-04-10T07:06:21.147Z,73.81
2023-04-10T07:07:24.229Z,73.72
2023-04-10T07:08:27.097Z,73.54
2023-04-10T07:09:30.814Z,73.77
2023-04-10T07:10:33.809Z,72.72
2023-04-10T07:11:36.842Z,72.58
2023-04-10T07:12:40.007Z,73.01
2023-04-10T07:13:42.940Z,73.23
2023-04-10T07:14:46.239Z,72.96
2023-04-10T07:15:49.264Z,73.34
2023-04-10T07:16:54.137Z,73.30
2023-04-10T07:17:57.086Z,73.56
2023-04-10T07:19:00.020Z,73.13
2023-04-10T07:20:03.455Z,73.17
2023-04-10T07:21:13.205Z,73.01
2023-04-10T07:22:16.885Z,72.50
2023-04-10T07:23:20.526Z,72.66
2023-04-10T07:24:23.656Z,73.00
2023-04-10T07:25:26.425Z,72.88
2023-04-10T07:26:29.283Z,72.42
2023-04-10T07:27:32.322Z,72.10
2023-04-10T07:28:35.240Z,71.68
2023-04-10T07:29:38.088Z,71.87
2023-04-10T07:30:41.519Z,72.01
2023-04-10T07:31:44.750Z,71.83
2023-04-10T07:32:48.517Z,72.13
2023-04-10T07:33:51.953Z,71.49
2023-04-10T07:34:54.850Z,71.38
2023-04-10T07:35:57.839Z,71.68
2023-04-10T07:37:00.877Z,71.10
2023-04-10T07:38:04.753Z,71.09
2023-04-10T07:39:07.676Z,70.81
2023-04-10T07:40:11.278Z,69.71
2023-04-10T07:41:14.448Z,69.49
2023-04-10T07:42:17.345Z,69.82
2023-04-10T07:43:21.561Z,70.70
2023-04-10T07:44:26.813Z,70.67
2023-04-10T07:45:29.788Z,70.60
2023-04-10T07:46:32.733Z,70.74
2023-04-10T07:47:35.902Z,70.80
2023-04-10T07:48:38.929Z,70.41
2023-04-10T07:49:42.325Z,69.17
2023-04-10T07:50:45.376Z,69.34
2023-04-10T07:51:48.736Z,69.39
2023-04-10T07:52:51.648Z,69.08
2023-04-10T07:53:54.538Z,68.01
2023-04-10T07:54:57.450Z,67.44
2023-04-10T07:56:00.246Z,67.31
2023-04-10T07:57:03.029Z,67.48
2023-04-10T07:58:06.472Z,66.86
2023-04-10T07:59:09.503Z,66.82
2023-04-10T08:00:13.199Z,67.35
2023-04-10T08:01:15.959Z,67.25
2023-04-10T08:02:18.975Z,67.97
2023-04-10T08:03:22.967Z,68.46
2023-04-10T08:04:26.865Z,68.46
2023-04-10T08:05:29.888Z,68.26
2023-04-10T08:06:32.846Z,67.83
2023-04-10T08:07:36.471Z,67.66
2023-04-10T08:08:41.205Z,67.54
2023-04-10T08:09:44.375Z,66.43
2023-04-10T08:10:47.206Z,66.30
2023-04-10T08:11:50.190Z,66.04
2023-04-10T08:12:53.089Z,66.40
2023-04-10T08:13:58.298Z,66.21
2023-04-10T08:15:02.024Z,66.28
2023-04-10T08:16:05.232Z,66.53
2023-04-10T08:17:14.610Z,66.79
2023-04-10T08:18:17.934Z,66.38
2023-04-10T08:19:20.858Z,66.59
2023-04-10T08:20:24.088Z,66.25
2023-04-10T08:21:29.937Z,65.95
2023-04-10T08:22:32.946Z,65.10
2023-04-10T08:23:35.948Z,65.41
2023-04-10T08:24:38.947Z,66.24
2023-04-10T08:25:41.911Z,65.99
2023-04-10T08:26:44.717Z,66.07
2023-04-10T08:27:47.587Z,64.71
2023-04-10T08:28:52.730Z,63.43
2023-04-10T08:29:56.717Z,63.13
2023-04-10T08:30:59.874Z,62.59
2023-04-10T08:32:02.849Z,62.89
2023-04-10T08:33:05.887Z,64.31
2023-04-10T08:34:08.960Z,64.90
2023-04-10T08:35:11.894Z,64.63
2023-04-10T08:36:17.675Z,65.06
2023-04-10T08:37:21.947Z,64.98
2023-04-10T08:38:27.651Z,64.13
2023-04-10T08:39:30.712Z,63.82
2023-04-10T08:40:37.572Z,63.84
2023-04-10T08:41:41.702Z,64.21
2023-04-10T08:42:44.646Z,63.85
2023-04-10T08:43:49.588Z,63.32
2023-04-10T08:44:53.119Z,63.14
2023-04-10T08:45:56.335Z,62.79
2023-04-10T08:47:01.391Z,62.87
2023-04-10T08:48:07.893Z,63.54
2023-04-10T08:49:39.100Z,63.58
2023-04-10T08:50:43.691Z,63.33
2023-04-10T08:51:52.005Z,63.63
2023-04-10T08:53:00.327Z,63.52
2023-04-10T08:54:10.777Z,62.54
2023-04-10T08:55:14.823Z,61.86
2023-04-10T08:56:18.753Z,61.50
2023-04-10T08:57:24.947Z,61.49
2023-04-10T08:58:28.804Z,62.60
2023-04-10T08:59:31.934Z,62.69
2023-04-10T09:00:38.654Z,62.17
2023-04-10T09:01:42.041Z,62.50
2023-04-10T09:02:45.507Z,61.77
2023-04-10T09:03:48.993Z,61.09
2023-04-10T09:04:56.302Z,60.35
2023-04-10T09:06:04.219Z,60.35
2023-04-10T09:07:07.067Z,61.39
2023-04-10T09:08:12.234Z,61.31
2023-04-10T09:09:15.485Z,60.93
2023-04-10T09:10:18.370Z,60.71
2023-04-10T09:11:21.491Z,61.18
2023-04-10T09:12:24.357Z,61.19
2023-04-10T09:13:41.962Z,60.87
2023-04-10T09:14:45.087Z,61.17
2023-04-10T09:16:00.621Z,61.51
2023-04-10T09:17:17.205Z,61.23
2023-04-10T09:18:20.164Z,61.39
2023-04-10T09:19:30.669Z,61.28
2023-04-10T09:20:34.458Z,61.10
2023-04-10T09:21:37.220Z,59.05
2023-04-10T09:22:40.109Z,59.81
2023-04-10T09:23:44.890Z,60.01
2023-04-10T09:24:48.298Z,60.01
2023-04-10T09:25:51.664Z,59.00
2023-04-10T09:26:55.380Z,59.70
2023-04-10T09:28:03.828Z,59.55
2023-04-10T09:29:07.813Z,59.82
2023-04-10T09:30:11.096Z,59.75
2023-04-10T09:31:35.658Z,59.47
2023-04-10T09:32:49.033Z,58.11
2023-04-10T09:34:07.808Z,58.00
2023-04-10T09:35:12.633Z,58.58
2023-04-10T09:36:16.122Z,59.37
2023-04-10T09:37:21.007Z,60.02
2023-04-10T09:38:23.977Z,59.11
2023-04-10T09:39:41.137Z,59.64
2023-04-10T09:40:45.655Z,59.38
2023-04-10T09:41:53.102Z,59.24
2023-04-10T09:42:57.289Z,58.02
2023-04-10T09:44:12.028Z,58.29
2023-04-10T09:45:16.652Z,58.40
2023-04-10T09:46:28.811Z,59.64
2023-04-10T09:47:33.280Z,59.93
2023-04-10T09:48:36.438Z,59.73
2023-04-10T09:49:52.579Z,59.06
2023-04-10T09:50:55.779Z,59.15
2023-04-10T09:51:58.693Z,58.95
2023-04-10T09:53:01.561Z,59.27
2023-04-10T09:54:04.644Z,59.53
2023-04-10T09:55:08.656Z,59.07
2023-04-10T09:56:13.110Z,59.14
2023-04-10T09:57:20.252Z,59.30
2023-04-10T09:58:26.549Z,58.31
2023-04-10T09:59:29.750Z,58.08
2023-04-10T10:00:44.699Z,58.63
2023-04-10T10:01:47.645Z,58.55
2023-04-10T10:02:52.408Z,58.04
2023-04-10T10:03:58.990Z,58.30
2023-04-10T10:05:05.602Z,58.17
2023-04-10T10:06:09.816Z,58.18
2023-04-10T10:07:18.553Z,57.97
2023-04-10T10:08:22.428Z,58.17
2023-04-10T10:09:27.688Z,58.38
2023-04-10T10:10:33.026Z,58.68
2023-04-10T10:11:36.490Z,58.97
2023-04-10T10:12:59.524Z,59.55
2023-04-10T10:14:06.540Z,59.63
2023-04-10T10:15:19.786Z,59.33
2023-04-10T10:16:37.410Z,59.16
2023-04-10T10:17:55.864Z,59.05
2023-04-10T10:19:22.153Z,58.83
2023-04-10T10:20:26.541Z,58.34
2023-04-10T10:21:30.700Z,57.25
2023-04-10T10:22:35.238Z,57.61
2023-04-10T10:23:38.720Z,57.62
2023-04-10T10:24:47.569Z,57.66
2023-04-10T10:25:51.431Z,58.49
2023-04-10T10:26:57.359Z,58.59
2023-04-10T10:28:04.129Z,58.85
2023-04-10T10:29:11.332Z,58.17
2023-04-10T10:30:28.358Z,57.53
2023-04-10T10:31:37.605Z,57.93
2023-04-10T10:32:41.468Z,57.99
2023-04-10T10:33:47.160Z,57.28
2023-04-10T10:34:53.026Z,57.00
2023-04-10T10:36:00.236Z,57.27
2023-04-10T10:37:04.730Z,57.35
2023-04-10T10:38:08.362Z,57.15
2023-04-10T10:39:42.436Z,57.34
2023-04-10T10:40:54.845Z,58.19
2023-04-10T10:42:48.649Z,58.25
2023-04-10T10:44:04.846Z,57.44
2023-04-10T10:45:17.570Z,57.06
2023-04-10T10:46:47.546Z,57.05
2023-04-10T10:47:54.977Z,57.73
2023-04-10T10:48:59.470Z,58.00
2023-04-10T10:50:03.946Z,58.28
2023-04-10T10:51:07.159Z,58.63
2023-04-10T10:52:10.006Z,58.55
2023-04-10T10:53:31.612Z,58.16
2023-04-10T10:54:36.603Z,58.19
2023-04-10T10:55:41.881Z,58.22
2023-04-10T10:56:44.672Z,58.16
2023-04-10T10:57:48.481Z,59.13
2023-04-10T10:58:54.496Z,59.46
2023-04-10T10:59:57.720Z,59.56
2023-04-10T11:01:00.518Z,60.53
2023-04-10T11:02:16.947Z,59.93
2023-04-10T11:03:20.058Z,60.22
2023-04-10T11:04:43.720Z,60.65
2023-04-10T11:05:57.307Z,59.48
2023-04-10T11:07:00.222Z,60.13
2023-04-10T11:08:03.368Z,60.56
2023-04-10T11:09:06.450Z,60.28
2023-04-10T11:10:09.497Z,59.69
2023-04-10T11:11:16.051Z,59.78
2023-04-10T11:12:25.585Z,59.66
2023-04-10T11:13:29.025Z,59.26
2023-04-10T11:14:33.705Z,59.67
2023-04-10T11:15:37.150Z,59.59
2023-04-10T11:16:41.583Z,59.15
2023-04-10T11:17:52.405Z,59.15
2023-04-10T11:19:06.322Z,59.04
2023-04-10T11:20:27.512Z,58.64
2023-04-10T11:21:31.596Z,59.65
2023-04-10T11:23:06.628Z,59.54
2023-04-10T11:24:09.981Z,58.72
2023-04-10T11:25:12.816Z,59.06
2023-04-10T11:26:42.801Z,59.42
2023-04-10T11:27:49.229Z,59.25
2023-04-10T11:28:52.312Z,59.19
2023-04-10T11:29:56.197Z,59.46
2023-04-10T11:31:20.035Z,58.75
2023-04-10T11:32:23.042Z,59.23
2023-04-10T11:33:26.019Z,57.97
2023-04-10T11:34:31.015Z,57.94
2023-04-10T11:35:34.177Z,59.29
2023-04-10T11:36:43.128Z,58.68
2023-04-10T11:37:46.295Z,58.65
2023-04-10T11:38:59.036Z,58.05
2023-04-10T11:40:06.457Z,58.10
2023-04-10T11:41:09.664Z,56.75
2023-04-10T11:42:12.948Z,57.09
2023-04-10T11:43:16.037Z,57.70
2023-04-10T11:44:39.658Z,57.72
2023-04-10T11:45:42.771Z,57.24
2023-04-10T11:46:47.488Z,56.80
2023-04-10T11:47:52.252Z,57.45
2023-04-10T11:49:03.582Z,57.17
2023-04-10T11:50:08.188Z,55.83
2023-04-10T11:51:13.469Z,56.29
2023-04-10T11:52:25.815Z,56.60
2023-04-10T11:53:30.336Z,54.69
2023-04-10T11:54:33.271Z,55.13
2023-04-10T11:55:39.815Z,53.68
2023-04-10T11:56:45.839Z,54.73
2023-04-10T11:57:49.026Z,54.66
2023-04-10T11:58:54.434Z,54.34
2023-04-10T11:59:59.134Z,53.88
2023-04-10T12:01:05.867Z,52.50
2023-04-10T12:02:11.803Z,52.79
2023-04-10T12:03:14.851Z,52.34
2023-04-10T12:04:19.730Z,51.60
2023-04-10T12:05:22.734Z,51.53
2023-04-10T12:06:26.113Z,52.11
2023-04-10T12:07:30.820Z,52.65
2023-04-10T12:08:38.019Z,53.93
2023-04-10T12:09:40.966Z,53.84
2023-04-10T12:10:47.494Z,53.99
2023-04-10T12:12:03.738Z,53.35
2023-04-10T12:13:07.675Z,52.48
2023-04-10T12:14:10.791Z,52.51
2023-04-10T12:15:30.814Z,52.13
2023-04-10T12:16:33.966Z,51.89
2023-04-10T12:17:37.893Z,52.78
2023-04-10T12:18:41.233Z,52.08
2023-04-10T12:19:44.329Z,52.66
2023-04-10T12:20:48.061Z,52.13
2023-04-10T12:21:51.631Z,51.19
2023-04-10T12:22:56.745Z,51.64
2023-04-10T12:23:59.632Z,51.81
2023-04-10T12:25:02.621Z,51.69
2023-04-10T12:26:16.465Z,51.78
2023-04-10T12:27:28.683Z,50.89
2023-04-10T12:28:32.053Z,49.54
2023-04-10T12:29:34.908Z,48.33
2023-04-10T12:30:37.882Z,48.52
2023-04-10T12:31:41.073Z,46.69
2023-04-10T12:32:52.505Z,47.05
2023-04-10T12:33:57.985Z,47.12
2023-04-10T12:35:03.627Z,46.51
2023-04-10T12:36:06.806Z,45.89
2023-04-10T12:37:12.523Z,46.21
2023-04-10T12:38:15.784Z,45.64
2023-04-10T12:39:24.237Z,47.01
2023-04-10T12:40:27.655Z,47.20
2023-04-10T12:41:32.522Z,47.01
2023-04-10T12:42:41.081Z,46.39
2023-04-10T12:43:44.886Z,46.56
2023-04-10T12:44:52.733Z,46.42
2023-04-10T12:45:56.369Z,46.55
2023-04-10T12:47:01.736Z,47.19
2023-04-10T12:48:04.730Z,47.54
2023-04-10T12:49:15.498Z,46.71
2023-04-10T12:50:21.041Z,45.80
2023-04-10T12:51:47.161Z,46.00
2023-04-10T12:53:11.801Z,45.30
2023-04-10T12:54:41.200Z,45.75
2023-04-10T12:56:01.216Z,44.85
2023-04-10T12:57:04.628Z,43.67
2023-04-10T12:58:18.540Z,43.91
2023-04-10T12:59:22.977Z,43.82
2023-04-10T13:00:26.575Z,42.57
2023-04-10T13:01:29.411Z,43.80
2023-04-10T13:02:32.536Z,44.15
2023-04-10T13:03:37.769Z,43.39
2023-04-10T13:04:41.269Z,42.49
2023-04-10T13:05:44.654Z,42.44
2023-04-10T13:06:49.364Z,40.87
2023-04-10T13:07:53.000Z,41.35
2023-04-10T13:08:56.672Z,41.84
2023-04-10T13:10:00.887Z,42.27
2023-04-10T13:11:03.806Z,41.01
2023-04-10T13:12:06.894Z,37.94
2023-04-10T13:13:12.077Z,38.25
2023-04-10T13:14:14.883Z,37.98
2023-04-10T13:15:17.822Z,38.77
2023-04-10T13:16:20.870Z,39.70
2023-04-10T13:17:25.446Z,39.85
2023-04-10T13:18:28.412Z,38.92
2023-04-10T13:19:31.853Z,37.85
2023-04-10T13:20:36.222Z,37.11
2023-04-10T13:21:39.138Z,37.39
2023-04-10T13:22:42.433Z,38.30
2023-04-10T13:23:47.085Z,38.26
2023-04-10T13:24:50.003Z,39.07
2023-04-10T13:25:53.758Z,38.81
2023-04-10T13:26:58.522Z,37.97
2023-04-10T13:28:01.812Z,37.74
2023-04-10T13:29:04.915Z,37.20
2023-04-10T13:30:08.355Z,37.39
2023-04-10T13:31:11.222Z,38.29
2023-04-10T13:32:14.142Z,38.05
2023-04-10T13:33:17.430Z,38.40
2023-04-10T13:34:20.284Z,39.20
2023-04-10T13:35:23.377Z,38.87
2023-04-10T13:36:26.820Z,39.57
2023-04-10T13:37:29.841Z,39.82
2023-04-10T13:38:32.715Z,39.88
2023-04-10T13:39:35.880Z,40.10
2023-04-10T13:40:39.225Z,40.01
2023-04-10T13:41:42.110Z,39.91
2023-04-10T13:42:44.825Z,39.24
2023-04-10T13:43:47.931Z,39.13
2023-04-10T13:44:50.735Z,38.66
2023-04-10T13:45:53.528Z,38.89
2023-04-10T13:46:58.110Z,38.94
2023-04-10T13:48:01.121Z,37.37
2023-04-10T13:49:04.198Z,35.70
2023-04-10T13:50:07.918Z,34.65
2023-04-10T13:51:10.884Z,35.57
2023-04-10T13:52:13.712Z,36.02
2023-04-10T13:53:16.741Z,35.76
2023-04-10T13:54:20.197Z,34.38
2023-04-10T13:55:23.062Z,33.54
2023-04-10T13:56:26.059Z,33.91
2023-04-10T13:57:28.973Z,35.25
2023-04-10T13:58:34.333Z,35.87
2023-04-10T13:59:37.599Z,36.13
2023-04-10T14:00:42.978Z,36.25
2023-04-10T14:01:45.917Z,36.43
2023-04-10T14:02:48.838Z,36.68
2023-04-10T14:03:51.963Z,36.32
2023-04-10T14:04:55.604Z,36.02
2023-04-10T14:05:58.438Z,35.65
2023-04-10T14:07:02.209Z,34.38
2023-04-10T14:08:05.781Z,34.93
2023-04-10T14:09:09.269Z,35.29
2023-04-10T14:10:12.385Z,35.08
2023-04-10T14:11:15.288Z,34.82
2023-04-10T14:12:19.388Z,35.24
2023-04-10T14:13:22.333Z,35.31
2023-04-10T14:14:25.284Z,34.15
2023-04-10T14:15:28.609Z,34.46
2023-04-10T14:16:31.508Z,34.84
2023-04-10T14:17:34.964Z,33.84
2023-04-10T14:18:37.804Z,33.95
2023-04-10T14:19:42.168Z,33.76
2023-04-10T14:20:45.276Z,33.28
2023-04-10T14:21:48.126Z,33.53
2023-04-10T14:22:51.060Z,33.45
2023-04-10T14:23:53.890Z,33.53
2023-04-10T14:25:09.259Z,33.86
2023-04-10T14:26:15.360Z,33.84
2023-04-10T14:27:18.310Z,34.19
2023-04-10T14:28:21.254Z,34.53
2023-04-10T14:29:36.340Z,34.26
2023-04-10T14:30:40.853Z,33.89